LOWG/GRZ METAR and TAF weather

Enter ICAO airport designator
Station Type Date Time Source
LOWG METAR 2019/08/20 09:20 UTC NOAA

LOWG 200920Z VRB04KT 9999 FEW030 26/17 Q1020 NOSIG


Station Type Date Time Source
LOWG Decoded METAR 2019/08/20 09:20 UTC NOAA

Graz-Thalerhof-Flughafen, Austria (LOWG) 47-00N 015-26E 347M
Aug 20, 2019 - 05:20 AM EDT / 2019.08.20 0920 UTC
Wind: Variable at 5 MPH (4 KT):0
Visibility: greater than 7 mile(s):0
Sky conditions: mostly clear
Temperature: 78 F (26 C)
Dew Point: 62 F (17 C)
Relative Humidity: 57%
Pressure (altimeter): 30.12 in. Hg (1020 hPa)
ob: LOWG 200920Z VRB04KT 9999 FEW030 26/17 Q1020 NOSIG
cycle: 9

Station Type Date Time Source
LOWG TAF 2019/08/20 06:21 UTC NOAA

TAF TAF LOWG 200515Z 2006/2106 VRB02KT 9999 BKN040 TX29/2015Z TN18/2006Z
BECMG 2009/2011 16007KT FEW060
TEMPO 2013/2018 21010KT FEW060 FEW060CB
BECMG 2018/2020 34004KT FEW040 SCT060

Example: see airport list